Barrington, Illinois
Current Conditions -  °F | °C
As of 4:52 PM on Saturday 22 Nov 2014 (Local Time) from KPWK Reporting Station
Overcast Overcast  
Wind Chill: 50°   Ceiling: 4300
Heat Index: 50°   Visibility: 9mi
Dew Point: 45°   Wind: 12mph
Humidity: 83%   Direction: 190°S
Pressure: 29.87"   Gusts: NA
Location:  42.15°N, 88.14°W
Report Text: KPWK 222252Z 19010KT 9SM FEW022 SCT032 OVC043 10/07 A2987 RMK AO2 SLP119 T01000072
Loading
Personal Weather Stations






























Interactive Weather Map New forecast layout! Learn more

10-Day Weather Forecast

Advertisements
Track Severe Weather on mobile